KHTS/HTS METAR and TAF weather

Enter ICAO airport designator
Station Type Date Time Source
KHTS METAR 2019/10/18 10:51 UTC NOAA

KHTS 181051Z 00000KT 10SM CLR 02/01 A3007 RMK AO2 SLP184 T00220011 $


Station Type Date Time Source
KHTS Decoded METAR 2019/10/18 10:51 UTC NOAA

TRI-STATE AIRPORT, WV, United States (KHTS) 38-22N 082-33W 254M
Oct 18, 2019 - 06:51 AM EDT / 2019.10.18 1051 UTC
Wind: Calm:0
Visibility: 10 mile(s):0
Sky conditions: clear
Temperature: 36.0 F (2.2 C)
Dew Point: 34.0 F (1.1 C)
Relative Humidity: 92%
Pressure (altimeter): 30.07 in. Hg (1018 hPa)
ob: KHTS 181051Z 00000KT 10SM CLR 02/01 A3007 RMK AO2 SLP184 T00220011
cycle: 11

Station Type Date Time Source
KHTS TAF 2019/10/18 10:04 UTC NOAA

TAF
AMD KHTS 181002Z 1810/1906 00000KT P6SM SKC

Example: see airport list